Time;durP1;ratioP1;P1;durP2;ratioP2;P2;SDS_P1;SDS_P2;PMS_P1;PMS_P2;Temp;Humidity;BMP_temperature;BMP_pressure;BME280_temperature;BME280_humidity;BME280_pressure;Samples;Min_cycle;Max_cycle;Signal;HPM_P1;HPM_P2
2023/07/02 00:01:50;;;;;;;0.00;0.00;;;;;;;;;;5049805;28;20389;-82
2023/07/02 00:04:16;;;;;;;0.13;0.13;;;;;;;;;;5049426;28;20063;-83
2023/07/02 00:06:46;;;;;;;0.00;0.00;;;;;;;;;;5050254;28;20494;-83
2023/07/02 00:09:12;;;;;;;0.10;0.10;;;;;;;;;;5049405;28;20025;-82
2023/07/02 00:11:38;;;;;;;0.00;0.00;;;;;;;;;;5047342;28;20032;-82
2023/07/02 00:14:05;;;;;;;0.10;0.10;;;;;;;;;;5049288;28;20025;-82
2023/07/02 00:16:31;;;;;;;0.00;0.00;;;;;;;;;;5049238;28;20077;-82
2023/07/02 00:18:57;;;;;;;0.00;0.00;;;;;;;;;;5049705;28;20029;-83
2023/07/02 00:21:27;;;;;;;0.00;0.00;;;;;;;;;;5049157;28;20025;-82
2023/07/02 00:23:53;;;;;;;0.10;0.10;;;;;;;;;;5048949;28;20128;-82
2023/07/02 00:26:19;;;;;;;0.10;0.10;;;;;;;;;;5049031;28;20055;-82
2023/07/02 00:28:45;;;;;;;0.10;0.10;;;;;;;;;;5048929;28;20037;-82
2023/07/02 00:31:11;;;;;;;0.00;0.00;;;;;;;;;;5049135;28;20021;-83
2023/07/02 00:33:37;;;;;;;0.10;0.10;;;;;;;;;;5049098;28;20025;-82
2023/07/02 00:36:03;;;;;;;0.00;0.00;;;;;;;;;;5049385;28;20054;-83
2023/07/02 00:38:29;;;;;;;0.08;0.08;;;;;;;;;;5048933;28;20033;-82
2023/07/02 00:40:55;;;;;;;0.00;0.00;;;;;;;;;;5049002;28;20138;-82
2023/07/02 00:43:21;;;;;;;0.45;0.10;;;;;;;;;;5049005;28;20044;-82
2023/07/02 00:45:47;;;;;;;0.08;0.08;;;;;;;;;;5049189;28;20029;-82
2023/07/02 00:48:13;;;;;;;0.00;0.00;;;;;;;;;;5048890;27;20025;-82
2023/07/02 00:50:40;;;;;;;0.10;0.10;;;;;;;;;;5048727;28;20116;-83
2023/07/02 00:53:05;;;;;;;0.10;0.10;;;;;;;;;;5049812;28;20029;-82
2023/07/02 00:55:31;;;;;;;0.10;0.10;;;;;;;;;;5048895;28;20023;-83
2023/07/02 00:57:58;;;;;;;0.10;0.10;;;;;;;;;;5048822;28;20529;-82
2023/07/02 01:00:24;;;;;;;0.00;0.00;;;;;;;;;;5048933;28;20490;-83
2023/07/02 01:02:59;;;;;;;0.00;0.00;;;;;;;;;;5048632;28;20505;-82
2023/07/02 01:05:38;;;;;;;0.08;0.08;;;;;;;;;;5048809;28;20034;-83
2023/07/02 01:08:05;;;;;;;0.10;0.10;;;;;;;;;;5049564;28;20022;-83
2023/07/02 01:10:32;;;;;;;0.22;0.22;;;;;;;;;;5048549;28;20039;-83
2023/07/02 01:13:01;;;;;;;0.00;0.00;;;;;;;;;;5048224;28;20070;-83
2023/07/02 01:15:27;;;;;;;0.03;0.03;;;;;;;;;;5049701;28;20040;-82
2023/07/02 01:17:53;;;;;;;0.10;0.10;;;;;;;;;;5048105;28;20031;-83
2023/07/02 01:20:20;;;;;;;0.03;0.03;;;;;;;;;;5048810;28;20037;-83
2023/07/02 01:22:46;;;;;;;0.00;0.00;;;;;;;;;;5048937;28;20025;-83
2023/07/02 01:25:12;;;;;;;0.00;0.00;;;;;;;;;;5052880;28;20032;-82
2023/07/02 01:27:38;;;;;;;0.10;0.10;;;;;;;;;;5051502;28;20049;-84
2023/07/02 01:30:04;;;;;;;0.00;0.00;;;;;;;;;;5051258;28;20029;-85
2023/07/02 01:32:30;;;;;;;0.00;0.00;;;;;;;;;;5051927;28;20035;-85
2023/07/02 01:34:56;;;;;;;0.00;0.00;;;;;;;;;;5051943;28;20029;-84
2023/07/02 01:37:22;;;;;;;0.10;0.10;;;;;;;;;;5051906;28;20028;-84
2023/07/02 01:39:48;;;;;;;0.10;0.10;;;;;;;;;;5051870;27;20029;-84
2023/07/02 01:42:15;;;;;;;0.20;0.10;;;;;;;;;;5050413;28;20033;-85
2023/07/02 01:44:42;;;;;;;0.00;0.00;;;;;;;;;;5051614;28;20124;-85
2023/07/02 01:47:08;;;;;;;0.57;0.20;;;;;;;;;;5051393;27;20029;-84
2023/07/02 01:49:36;;;;;;;0.10;0.10;;;;;;;;;;5051563;28;20081;-85
2023/07/02 01:52:02;;;;;;;0.10;0.10;;;;;;;;;;5050656;28;20503;-85
2023/07/02 01:54:28;;;;;;;0.00;0.00;;;;;;;;;;5051539;28;20021;-85
2023/07/02 01:56:57;;;;;;;0.20;0.20;;;;;;;;;;5051045;28;20081;-84
2023/07/02 01:59:23;;;;;;;0.40;0.40;;;;;;;;;;5051847;28;20056;-84
2023/07/02 02:01:49;;;;;;;0.40;0.40;;;;;;;;;;5051298;28;20067;-85
2023/07/02 02:04:15;;;;;;;0.30;0.30;;;;;;;;;;5051322;28;20033;-84
2023/07/02 02:06:42;;;;;;;0.20;0.20;;;;;;;;;;5051231;28;20396;-84
2023/07/02 02:09:09;;;;;;;0.10;0.10;;;;;;;;;;5051243;28;20032;-84
2023/07/02 02:11:35;;;;;;;0.57;0.30;;;;;;;;;;5050809;27;20410;-84
2023/07/02 02:14:01;;;;;;;0.05;0.05;;;;;;;;;;5051142;28;20051;-85
2023/07/02 02:16:28;;;;;;;0.35;0.35;;;;;;;;;;5051608;28;20025;-85
2023/07/02 02:18:54;;;;;;;0.20;0.20;;;;;;;;;;5051210;28;20032;-84
2023/07/02 02:21:20;;;;;;;0.00;0.00;;;;;;;;;;5050988;28;20398;-84
2023/07/02 02:23:46;;;;;;;0.20;0.20;;;;;;;;;;5050794;28;20029;-84
2023/07/02 02:26:12;;;;;;;0.10;0.10;;;;;;;;;;5050438;28;20021;-84
2023/07/02 02:28:38;;;;;;;0.40;0.40;;;;;;;;;;5051048;28;20037;-84
2023/07/02 02:31:04;;;;;;;0.10;0.10;;;;;;;;;;5049648;28;20538;-85
2023/07/02 02:33:30;;;;;;;0.30;0.30;;;;;;;;;;5051094;28;20033;-84
2023/07/02 02:35:56;;;;;;;0.32;0.20;;;;;;;;;;5050706;28;20029;-85
2023/07/02 02:38:22;;;;;;;0.10;0.10;;;;;;;;;;5050359;28;20025;-85
2023/07/02 02:40:48;;;;;;;0.03;0.03;;;;;;;;;;5051096;27;20052;-84
2023/07/02 02:43:16;;;;;;;0.45;0.20;;;;;;;;;;5050704;28;20075;-85
2023/07/02 02:45:42;;;;;;;0.20;0.20;;;;;;;;;;5050768;28;20029;-84
2023/07/02 02:48:08;;;;;;;0.30;0.30;;;;;;;;;;5051027;27;20029;-85
2023/07/02 02:50:34;;;;;;;0.20;0.20;;;;;;;;;;5050227;28;20217;-84
2023/07/02 02:53:00;;;;;;;0.90;0.63;;;;;;;;;;5050100;28;20468;-84
2023/07/02 02:55:27;;;;;;;0.10;0.10;;;;;;;;;;5050616;28;20100;-84
2023/07/02 02:57:53;;;;;;;0.25;0.25;;;;;;;;;;5050950;28;20025;-85
2023/07/02 03:00:19;;;;;;;0.10;0.10;;;;;;;;;;5050384;28;20484;-84
2023/07/02 03:02:45;;;;;;;0.20;0.20;;;;;;;;;;5050248;28;20117;-84
2023/07/02 03:05:12;;;;;;;0.30;0.30;;;;;;;;;;5050683;28;20033;-85
2023/07/02 03:07:38;;;;;;;0.10;0.10;;;;;;;;;;5048666;28;20104;-84
2023/07/02 03:10:05;;;;;;;0.55;0.40;;;;;;;;;;5050230;28;20108;-85
2023/07/02 03:12:31;;;;;;;0.10;0.10;;;;;;;;;;5050652;28;20029;-84
2023/07/02 03:14:57;;;;;;;0.13;0.13;;;;;;;;;;5050165;28;20394;-84
2023/07/02 03:17:23;;;;;;;0.20;0.20;;;;;;;;;;5050252;28;20415;-85
2023/07/02 03:19:49;;;;;;;0.50;0.50;;;;;;;;;;5050481;28;20032;-84
2023/07/02 03:22:15;;;;;;;0.00;0.00;;;;;;;;;;5049776;28;20017;-84
2023/07/02 03:24:41;;;;;;;0.05;0.05;;;;;;;;;;5048921;28;20463;-85
2023/07/02 03:27:07;;;;;;;0.43;0.40;;;;;;;;;;5050041;28;20044;-84
2023/07/02 03:29:38;;;;;;;0.45;0.22;;;;;;;;;;5050166;28;20043;-84
2023/07/02 03:32:04;;;;;;;0.35;0.35;;;;;;;;;;5049103;28;20053;-85
2023/07/02 03:34:30;;;;;;;0.52;0.30;;;;;;;;;;5050122;28;20029;-85
2023/07/02 03:36:56;;;;;;;0.10;0.10;;;;;;;;;;5049534;28;20025;-85
2023/07/02 03:39:22;;;;;;;0.38;0.30;;;;;;;;;;5050011;28;20029;-84
2023/07/02 03:41:48;;;;;;;0.50;0.50;;;;;;;;;;5049741;28;20112;-85
2023/07/02 03:44:14;;;;;;;0.05;0.05;;;;;;;;;;5050232;28;20048;-85
2023/07/02 03:46:40;;;;;;;0.30;0.30;;;;;;;;;;5048568;27;20022;-84
2023/07/02 03:49:06;;;;;;;0.38;0.38;;;;;;;;;;5049641;28;20102;-84
2023/07/02 03:51:32;;;;;;;0.10;0.10;;;;;;;;;;5049669;28;20383;-85
2023/07/02 03:53:59;;;;;;;0.20;0.20;;;;;;;;;;5049676;28;20559;-85
2023/07/02 03:56:26;;;;;;;0.28;0.10;;;;;;;;;;5050530;28;20526;-84
2023/07/02 03:58:52;;;;;;;0.55;0.35;;;;;;;;;;5049696;28;20130;-84
2023/07/02 04:01:18;;;;;;;1.25;0.90;;;;;;;;;;5049436;28;20025;-84
2023/07/02 04:03:50;;;;;;;0.55;0.22;;;;;;;;;;5049450;28;20029;-84
2023/07/02 04:06:17;;;;;;;1.15;0.68;;;;;;;;;;5047801;28;20025;-84
2023/07/02 04:08:43;;;;;;;0.80;0.57;;;;;;;;;;5049856;28;20490;-84
2023/07/02 04:11:09;;;;;;;0.93;0.30;;;;;;;;;;5049335;28;20670;-84
2023/07/02 04:13:35;;;;;;;0.03;0.03;;;;;;;;;;5049310;28;20073;-84
2023/07/02 04:16:01;;;;;;;0.70;0.63;;;;;;;;;;5049648;28;20017;-84
2023/07/02 04:18:29;;;;;;;0.30;0.22;;;;;;;;;;5049320;28;20025;-84
2023/07/02 04:20:55;;;;;;;0.22;0.22;;;;;;;;;;5048945;28;20029;-84
2023/07/02 04:23:20;;;;;;;0.10;0.10;;;;;;;;;;5048970;28;20033;-84
2023/07/02 04:25:46;;;;;;;0.20;0.20;;;;;;;;;;5049137;28;20048;-84
2023/07/02 04:28:12;;;;;;;0.20;0.20;;;;;;;;;;5049159;28;20174;-84
2023/07/02 04:30:38;;;;;;;0.35;0.35;;;;;;;;;;5049192;28;20025;-84
2023/07/02 04:33:07;;;;;;;0.10;0.10;;;;;;;;;;5050047;28;20154;-84
2023/07/02 04:35:34;;;;;;;0.13;0.13;;;;;;;;;;5049371;28;20108;-84
2023/07/02 04:38:00;;;;;;;0.25;0.20;;;;;;;;;;5049075;28;20025;-84
2023/07/02 04:40:27;;;;;;;0.80;0.55;;;;;;;;;;5047675;28;20029;-84
2023/07/02 04:42:57;;;;;;;0.73;0.73;;;;;;;;;;5049400;28;20398;-84
2023/07/02 04:45:36;;;;;;;0.47;0.47;;;;;;;;;;5049004;28;20085;-84
2023/07/02 04:48:02;;;;;;;0.30;0.30;;;;;;;;;;5033299;27;20442;-84
2023/07/02 04:50:28;;;;;;;0.20;0.20;;;;;;;;;;5028478;28;20029;-85
2023/07/02 04:52:55;;;;;;;0.20;0.10;;;;;;;;;;5029054;28;20109;-84
2023/07/02 04:55:21;;;;;;;0.15;0.15;;;;;;;;;;5027800;28;20032;-84
2023/07/02 04:57:47;;;;;;;0.10;0.10;;;;;;;;;;5029589;28;20029;-85
2023/07/02 05:00:14;;;;;;;1.17;1.02;;;;;;;;;;5031168;28;20029;-84
2023/07/02 05:02:40;;;;;;;1.95;0.75;;;;;;;;;;5033008;28;20429;-85
2023/07/02 05:05:07;;;;;;;0.57;0.50;;;;;;;;;;5031896;28;20037;-84
2023/07/02 05:07:33;;;;;;;0.30;0.30;;;;;;;;;;5032645;28;20046;-84
2023/07/02 05:09:59;;;;;;;0.75;0.50;;;;;;;;;;5033066;28;20484;-84
2023/07/02 05:12:25;;;;;;;0.95;0.20;;;;;;;;;;5032565;28;20029;-84
2023/07/02 05:14:51;;;;;;;0.95;0.50;;;;;;;;;;5032305;28;20057;-84
2023/07/02 05:17:17;;;;;;;1.02;0.90;;;;;;;;;;5030970;28;20041;-84
2023/07/02 05:19:43;;;;;;;1.92;0.80;;;;;;;;;;5031664;28;20026;-84
2023/07/02 05:22:10;;;;;;;0.40;0.40;;;;;;;;;;5036180;28;20025;-84
2023/07/02 05:24:36;;;;;;;0.10;0.10;;;;;;;;;;5052222;28;20090;-85
2023/07/02 05:27:02;;;;;;;0.10;0.10;;;;;;;;;;5051747;28;20037;-84
2023/07/02 05:29:28;;;;;;;4.57;0.45;;;;;;;;;;5052107;28;20033;-87
2023/07/02 05:31:54;;;;;;;0.65;0.50;;;;;;;;;;5052215;28;20062;-87
2023/07/02 05:34:20;;;;;;;1.05;0.93;;;;;;;;;;5051520;28;20431;-87
2023/07/02 05:36:46;;;;;;;0.05;0.05;;;;;;;;;;5052039;28;20029;-86
2023/07/02 05:39:12;;;;;;;1.20;0.70;;;;;;;;;;5051879;28;20082;-87
2023/07/02 05:41:38;;;;;;;0.77;0.52;;;;;;;;;;5052623;28;20053;-87
2023/07/02 05:44:04;;;;;;;1.67;0.80;;;;;;;;;;5050492;28;20040;-87
2023/07/02 05:46:30;;;;;;;0.60;0.47;;;;;;;;;;5051990;27;20033;-87
2023/07/02 05:48:57;;;;;;;0.43;0.43;;;;;;;;;;5051176;28;20025;-86
2023/07/02 05:51:23;;;;;;;0.93;0.55;;;;;;;;;;5050226;28;20116;-87
2023/07/02 05:53:50;;;;;;;1.45;0.73;;;;;;;;;;5051385;28;20050;-86
2023/07/02 05:56:16;;;;;;;0.52;0.52;;;;;;;;;;5051658;28;20127;-87
2023/07/02 05:58:42;;;;;;;1.75;0.68;;;;;;;;;;5051867;28;20059;-87
2023/07/02 06:01:08;;;;;;;0.88;0.88;;;;;;;;;;5051333;28;20032;-87
2023/07/02 06:03:34;;;;;;;0.08;0.08;;;;;;;;;;5050804;28;20041;-87
2023/07/02 06:06:00;;;;;;;0.40;0.40;;;;;;;;;;5051393;28;20061;-87
2023/07/02 06:08:26;;;;;;;0.55;0.45;;;;;;;;;;5051204;28;20509;-87
2023/07/02 06:10:52;;;;;;;0.55;0.55;;;;;;;;;;5050173;28;20040;-87
2023/07/02 06:13:18;;;;;;;2.83;0.52;;;;;;;;;;5051201;28;20044;-87
2023/07/02 06:15:45;;;;;;;0.77;0.50;;;;;;;;;;5051477;28;20025;-87
2023/07/02 06:18:11;;;;;;;0.63;0.43;;;;;;;;;;5041244;27;20033;-87
2023/07/02 06:20:37;;;;;;;0.57;0.57;;;;;;;;;;5051263;28;20028;-87
2023/07/02 06:23:03;;;;;;;0.50;0.43;;;;;;;;;;5050626;28;20045;-87
2023/07/02 06:25:29;;;;;;;0.65;0.65;;;;;;;;;;5050615;28;20449;-86
2023/07/02 06:27:58;;;;;;;0.38;0.38;;;;;;;;;;5050561;28;20081;-85
2023/07/02 06:30:24;;;;;;;0.45;0.45;;;;;;;;;;5048706;28;20114;-85
2023/07/02 06:32:50;;;;;;;0.17;0.17;;;;;;;;;;5050857;28;20031;-86
2023/07/02 06:35:16;;;;;;;0.30;0.30;;;;;;;;;;5050259;28;20466;-86
2023/07/02 06:37:42;;;;;;;0.60;0.57;;;;;;;;;;5051137;28;20031;-86
2023/07/02 06:40:08;;;;;;;0.88;0.63;;;;;;;;;;5050299;28;20037;-85
2023/07/02 06:42:35;;;;;;;0.60;0.50;;;;;;;;;;5050307;28;20523;-85
2023/07/02 06:45:01;;;;;;;1.05;0.47;;;;;;;;;;5048812;28;20383;-85
2023/07/02 06:47:28;;;;;;;0.55;0.40;;;;;;;;;;5050257;27;20057;-84
2023/07/02 06:49:54;;;;;;;2.65;0.32;;;;;;;;;;5050138;28;20143;-85
2023/07/02 06:52:20;;;;;;;0.65;0.55;;;;;;;;;;5050090;28;20498;-85
2023/07/02 06:54:46;;;;;;;2.20;1.08;;;;;;;;;;5050086;28;20019;-84
2023/07/02 06:57:13;;;;;;;0.60;0.60;;;;;;;;;;5050519;28;20431;-85
2023/07/02 06:59:39;;;;;;;1.77;1.27;;;;;;;;;;5049476;28;20025;-85
2023/07/02 07:02:05;;;;;;;1.40;0.88;;;;;;;;;;5050325;28;20173;-85
2023/07/02 07:04:31;;;;;;;0.95;0.85;;;;;;;;;;5049871;28;20055;-84
2023/07/02 07:06:57;;;;;;;4.43;1.10;;;;;;;;;;5050572;28;20379;-84
2023/07/02 07:09:23;;;;;;;0.70;0.60;;;;;;;;;;5049992;28;20107;-85
2023/07/02 07:11:49;;;;;;;1.35;0.40;;;;;;;;;;5050275;28;20025;-84
2023/07/02 07:14:15;;;;;;;0.77;0.68;;;;;;;;;;5049314;28;20531;-85
2023/07/02 07:16:41;;;;;;;1.30;0.75;;;;;;;;;;5049756;28;20109;-84
2023/07/02 07:19:07;;;;;;;0.90;0.70;;;;;;;;;;5050048;28;20029;-86
2023/07/02 07:21:34;;;;;;;1.85;1.20;;;;;;;;;;5049664;28;20074;-85
2023/07/02 07:24:00;;;;;;;0.52;0.52;;;;;;;;;;5049973;28;20029;-84
2023/07/02 07:26:26;;;;;;;1.08;0.55;;;;;;;;;;5049603;27;20033;-86
2023/07/02 07:28:54;;;;;;;0.75;0.75;;;;;;;;;;5049364;28;20471;-86
2023/07/02 07:31:20;;;;;;;0.88;0.40;;;;;;;;;;5068600;27;20089;-82
2023/07/02 07:33:46;;;;;;;0.10;0.10;;;;;;;;;;5048991;28;20108;-82
2023/07/02 07:36:12;;;;;;;1.05;0.47;;;;;;;;;;5081668;27;20054;-83
2023/07/02 07:38:39;;;;;;;0.35;0.35;;;;;;;;;;5156727;27;20515;-85
2023/07/02 07:41:06;;;;;;;0.28;0.28;;;;;;;;;;5050398;27;20025;-83
2023/07/02 07:43:32;;;;;;;0.52;0.43;;;;;;;;;;5049281;28;20033;-82
2023/07/02 07:45:59;;;;;;;0.52;0.50;;;;;;;;;;5049867;27;20050;-83
2023/07/02 07:48:25;;;;;;;0.75;0.57;;;;;;;;;;5049224;28;20037;-83
2023/07/02 07:50:51;;;;;;;0.43;0.43;;;;;;;;;;5049836;27;20024;-81
2023/07/02 07:53:17;;;;;;;1.20;0.95;;;;;;;;;;5049260;28;20542;-84
2023/07/02 07:55:43;;;;;;;0.40;0.40;;;;;;;;;;5049119;27;20398;-82
2023/07/02 07:58:09;;;;;;;1.20;0.45;;;;;;;;;;5049432;28;20040;-83
2023/07/02 08:00:35;;;;;;;0.20;0.20;;;;;;;;;;5062086;27;20029;-83
2023/07/02 08:03:03;;;;;;;1.02;0.47;;;;;;;;;;5152447;27;20479;-84
2023/07/02 08:05:29;;;;;;;0.28;0.28;;;;;;;;;;5153500;27;20498;-81
2023/07/02 08:07:55;;;;;;;0.68;0.68;;;;;;;;;;5152898;27;20476;-83
2023/07/02 08:10:21;;;;;;;0.80;0.63;;;;;;;;;;5153460;27;20019;-82
2023/07/02 08:12:48;;;;;;;0.60;0.50;;;;;;;;;;5047906;27;20105;-82
2023/07/02 08:15:14;;;;;;;0.47;0.47;;;;;;;;;;5029187;28;20024;-82
2023/07/02 08:17:40;;;;;;;0.47;0.20;;;;;;;;;;5126937;27;20114;-82
2023/07/02 08:20:09;;;;;;;0.73;0.43;;;;;;;;;;5097349;27;20083;-81
2023/07/02 08:22:36;;;;;;;0.60;0.57;;;;;;;;;;5110865;27;20112;-83
2023/07/02 08:25:02;;;;;;;0.77;0.43;;;;;;;;;;5048626;28;20064;-83
2023/07/02 08:27:28;;;;;;;0.52;0.52;;;;;;;;;;5048685;28;20041;-83
2023/07/02 08:29:54;;;;;;;0.82;0.50;;;;;;;;;;5048530;28;20033;-82
2023/07/02 08:32:20;;;;;;;1.00;0.98;;;;;;;;;;5048113;28;20093;-83
2023/07/02 08:34:46;;;;;;;1.20;0.32;;;;;;;;;;5048365;28;20027;-83
2023/07/02 08:37:12;;;;;;;1.05;0.88;;;;;;;;;;5051959;27;20055;-82
2023/07/02 08:39:41;;;;;;;0.35;0.35;;;;;;;;;;5067234;27;20470;-85
2023/07/02 08:42:07;;;;;;;0.45;0.45;;;;;;;;;;5048265;28;20081;-82
2023/07/02 08:44:34;;;;;;;0.68;0.68;;;;;;;;;;5048366;28;20111;-82
2023/07/02 08:47:00;;;;;;;0.70;0.70;;;;;;;;;;5048670;27;20025;-81
2023/07/02 08:49:26;;;;;;;0.50;0.50;;;;;;;;;;5048255;28;20494;-82
2023/07/02 08:51:52;;;;;;;2.47;0.98;;;;;;;;;;5079375;27;20143;-82
2023/07/02 08:54:18;;;;;;;0.88;0.70;;;;;;;;;;5153444;27;20038;-80
2023/07/02 08:56:46;;;;;;;0.50;0.50;;;;;;;;;;5153109;27;20019;-80
2023/07/02 08:59:12;;;;;;;0.57;0.57;;;;;;;;;;5153571;27;20382;-82
2023/07/02 09:01:48;;;;;;;1.25;1.00;;;;;;;;;;5152921;27;20480;-82
2023/07/02 09:04:21;;;;;;;0.93;0.85;;;;;;;;;;5152646;27;20155;-82
2023/07/02 09:06:48;;;;;;;0.10;0.10;;;;;;;;;;5153260;27;20033;-82
2023/07/02 09:09:14;;;;;;;0.30;0.30;;;;;;;;;;5153223;27;20031;-82
2023/07/02 09:11:50;;;;;;;0.55;0.55;;;;;;;;;;5126693;27;20025;-82
2023/07/02 09:14:29;;;;;;;0.85;0.82;;;;;;;;;;5048195;28;20028;-82
2023/07/02 09:17:02;;;;;;;0.40;0.40;;;;;;;;;;5048072;28;20025;-83
2023/07/02 09:19:28;;;;;;;0.65;0.45;;;;;;;;;;5048199;28;20029;-81
2023/07/02 09:21:59;;;;;;;0.98;0.73;;;;;;;;;;5047710;28;20029;-82
2023/07/02 09:24:25;;;;;;;0.60;0.57;;;;;;;;;;5047706;28;20120;-81
2023/07/02 09:26:53;;;;;;;0.50;0.50;;;;;;;;;;5048047;28;20124;-82
2023/07/02 09:29:25;;;;;;;0.38;0.38;;;;;;;;;;5048008;28;20109;-82
2023/07/02 09:31:51;;;;;;;0.55;0.30;;;;;;;;;;5048378;28;20025;-82
2023/07/02 09:34:17;;;;;;;0.75;0.55;;;;;;;;;;5047951;28;20098;-82
2023/07/02 09:36:44;;;;;;;0.20;0.20;;;;;;;;;;5047718;28;20024;-82
2023/07/02 09:39:12;;;;;;;2.75;1.65;;;;;;;;;;5047543;28;20479;-82
2023/07/02 09:41:40;;;;;;;1.13;1.02;;;;;;;;;;5047721;28;20025;-82
2023/07/02 09:44:07;;;;;;;1.75;0.55;;;;;;;;;;5048988;28;20083;-82
2023/07/02 09:46:33;;;;;;;0.82;0.82;;;;;;;;;;5051252;27;20024;-82
2023/07/02 09:49:00;;;;;;;0.38;0.38;;;;;;;;;;5076334;27;20031;-82
2023/07/02 09:51:26;;;;;;;1.05;0.77;;;;;;;;;;5157018;27;20057;-82
2023/07/02 09:53:52;;;;;;;0.17;0.17;;;;;;;;;;5156056;27;20437;-81
2023/07/02 09:56:21;;;;;;;0.40;0.40;;;;;;;;;;5156169;27;20019;-82
2023/07/02 09:58:47;;;;;;;0.20;0.20;;;;;;;;;;5156977;27;20031;-81
2023/07/02 10:01:13;;;;;;;0.17;0.17;;;;;;;;;;5155941;27;20086;-81
2023/07/02 10:03:39;;;;;;;0.80;0.80;;;;;;;;;;5156159;27;20034;-83
2023/07/02 10:06:06;;;;;;;0.40;0.40;;;;;;;;;;5156410;27;20110;-83
2023/07/02 10:08:32;;;;;;;0.40;0.40;;;;;;;;;;5155570;27;20030;-82
2023/07/02 10:11:12;;;;;;;2.72;1.17;;;;;;;;;;5154536;27;20388;-82
2023/07/02 10:13:39;;;;;;;1.45;0.90;;;;;;;;;;5030759;28;20040;-82
2023/07/02 10:16:05;;;;;;;0.30;0.30;;;;;;;;;;5033025;28;20022;-82
2023/07/02 10:18:31;;;;;;;1.67;1.00;;;;;;;;;;5032260;28;20057;-82
2023/07/02 10:20:57;;;;;;;0.30;0.30;;;;;;;;;;5031144;28;20022;-83
2023/07/02 10:23:36;;;;;;;0.50;0.50;;;;;;;;;;5045392;28;20029;-83
2023/07/02 10:26:14;;;;;;;0.30;0.30;;;;;;;;;;5054452;28;20500;-82
2023/07/02 10:28:40;;;;;;;0.77;0.77;;;;;;;;;;5134442;27;20031;-81
2023/07/02 10:31:17;;;;;;;0.77;0.77;;;;;;;;;;5081593;27;20032;-82
2023/07/02 10:33:44;;;;;;;1.20;1.10;;;;;;;;;;5050497;28;20386;-82
2023/07/02 10:36:18;;;;;;;0.40;0.32;;;;;;;;;;5050473;28;20057;-82
2023/07/02 10:38:44;;;;;;;0.45;0.35;;;;;;;;;;5051468;28;20029;-82
2023/07/02 10:41:10;;;;;;;0.30;0.30;;;;;;;;;;5051725;28;20044;-82
2023/07/02 10:43:36;;;;;;;0.52;0.52;;;;;;;;;;5050876;28;20025;-82
2023/07/02 10:46:02;;;;;;;0.50;0.50;;;;;;;;;;5050824;28;20090;-82
2023/07/02 10:48:28;;;;;;;0.45;0.45;;;;;;;;;;5050568;27;20029;-82
2023/07/02 10:50:54;;;;;;;0.15;0.15;;;;;;;;;;5050325;28;20112;-82
2023/07/02 10:53:20;;;;;;;0.30;0.30;;;;;;;;;;5049697;28;20040;-82
2023/07/02 10:55:54;;;;;;;1.88;0.73;;;;;;;;;;5050051;28;20108;-82
2023/07/02 10:58:20;;;;;;;0.82;0.45;;;;;;;;;;5049763;28;20021;-81
2023/07/02 11:00:51;;;;;;;0.25;0.25;;;;;;;;;;5038791;28;20055;-80
2023/07/02 11:03:19;;;;;;;0.63;0.60;;;;;;;;;;5050159;28;20139;-81
2023/07/02 11:05:45;;;;;;;0.47;0.47;;;;;;;;;;5050274;28;20430;-80
2023/07/02 11:08:11;;;;;;;3.25;1.45;;;;;;;;;;5044790;28;20093;-82
2023/07/02 11:10:37;;;;;;;0.63;0.55;;;;;;;;;;5046067;28;20033;-80
2023/07/02 11:13:12;;;;;;;1.50;1.17;;;;;;;;;;5049381;28;20056;-81
2023/07/02 11:15:40;;;;;;;0.30;0.30;;;;;;;;;;5049905;28;20093;-81
2023/07/02 11:18:09;;;;;;;0.60;0.57;;;;;;;;;;5031982;28;20025;-83
2023/07/02 11:20:35;;;;;;;0.75;0.75;;;;;;;;;;5034522;28;20099;-82
2023/07/02 11:23:01;;;;;;;0.47;0.47;;;;;;;;;;5050789;28;20021;-83
2023/07/02 11:25:28;;;;;;;0.73;0.73;;;;;;;;;;5050639;28;20029;-85
2023/07/02 11:28:03;;;;;;;0.30;0.30;;;;;;;;;;5049883;28;20072;-85
2023/07/02 11:30:29;;;;;;;0.52;0.52;;;;;;;;;;5050003;28;20029;-82
2023/07/02 11:32:56;;;;;;;0.57;0.57;;;;;;;;;;5049969;28;20069;-81
2023/07/02 11:35:22;;;;;;;0.50;0.50;;;;;;;;;;5050008;28;20113;-81
2023/07/02 11:37:49;;;;;;;0.50;0.50;;;;;;;;;;5050150;27;20500;-82
2023/07/02 11:40:15;;;;;;;0.77;0.68;;;;;;;;;;5049728;28;20022;-81
2023/07/02 11:42:41;;;;;;;0.85;0.55;;;;;;;;;;5049943;28;20029;-82
2023/07/02 11:45:08;;;;;;;0.38;0.32;;;;;;;;;;5049721;28;20065;-82
2023/07/02 11:47:34;;;;;;;0.30;0.30;;;;;;;;;;5049772;27;20110;-82
2023/07/02 11:50:00;;;;;;;0.47;0.47;;;;;;;;;;5049277;28;20032;-82
2023/07/02 11:52:26;;;;;;;0.30;0.30;;;;;;;;;;5049507;28;20133;-81
2023/07/02 11:54:52;;;;;;;0.15;0.15;;;;;;;;;;5050001;28;20401;-81
2023/07/02 11:57:18;;;;;;;0.30;0.30;;;;;;;;;;5049582;28;20048;-87
2023/07/02 11:59:44;;;;;;;2.47;1.30;;;;;;;;;;5047762;28;20475;-80
2023/07/02 12:02:10;;;;;;;1.10;0.15;;;;;;;;;;5048230;28;20029;-80
2023/07/02 12:04:36;;;;;;;0.47;0.40;;;;;;;;;;5049043;28;20033;-79
2023/07/02 12:07:03;;;;;;;5.60;0.55;;;;;;;;;;5049395;27;20025;-80
2023/07/02 12:09:29;;;;;;;0.00;0.00;;;;;;;;;;5049147;28;20028;-80
2023/07/02 12:11:55;;;;;;;0.38;0.32;;;;;;;;;;5049411;28;20029;-80
2023/07/02 12:14:21;;;;;;;0.10;0.10;;;;;;;;;;5049450;28;20033;-80
2023/07/02 12:16:47;;;;;;;0.15;0.15;;;;;;;;;;5049591;28;20496;-80
2023/07/02 12:19:13;;;;;;;0.65;0.60;;;;;;;;;;5048841;28;20405;-80
2023/07/02 12:21:39;;;;;;;0.00;0.00;;;;;;;;;;5049211;28;20041;-80
2023/07/02 12:24:09;;;;;;;0.35;0.35;;;;;;;;;;5049730;28;20082;-80
2023/07/02 12:26:35;;;;;;;0.50;0.50;;;;;;;;;;5049034;28;20052;-80
2023/07/02 12:29:01;;;;;;;0.25;0.25;;;;;;;;;;5049812;28;20427;-80
2023/07/02 12:31:27;;;;;;;0.20;0.20;;;;;;;;;;5049289;28;20059;-80
2023/07/02 12:33:53;;;;;;;0.43;0.35;;;;;;;;;;5048843;28;20028;-80
2023/07/02 12:36:19;;;;;;;0.22;0.22;;;;;;;;;;5049142;28;20508;-80
2023/07/02 12:38:45;;;;;;;0.28;0.28;;;;;;;;;;5049461;28;20033;-80
2023/07/02 12:41:11;;;;;;;0.40;0.40;;;;;;;;;;5049063;28;20445;-80
2023/07/02 12:43:37;;;;;;;0.05;0.05;;;;;;;;;;5049388;28;20021;-80
2023/07/02 12:46:03;;;;;;;1.17;0.55;;;;;;;;;;5049104;28;20075;-80
2023/07/02 12:48:29;;;;;;;0.35;0.10;;;;;;;;;;5048391;27;20390;-80
2023/07/02 12:50:58;;;;;;;0.22;0.22;;;;;;;;;;5048894;28;20021;-80
2023/07/02 12:53:25;;;;;;;0.38;0.38;;;;;;;;;;5049535;28;20088;-80
2023/07/02 12:55:51;;;;;;;0.03;0.03;;;;;;;;;;5048742;28;20161;-80
2023/07/02 12:58:18;;;;;;;0.17;0.17;;;;;;;;;;5048796;28;20107;-80
2023/07/02 13:00:44;;;;;;;0.15;0.15;;;;;;;;;;5048810;28;20095;-80
2023/07/02 13:03:11;;;;;;;0.28;0.28;;;;;;;;;;5048317;28;20406;-80
2023/07/02 13:05:37;;;;;;;0.50;0.28;;;;;;;;;;5048624;28;20033;-80
2023/07/02 13:08:03;;;;;;;0.20;0.20;;;;;;;;;;5048749;28;20473;-80
2023/07/02 13:10:30;;;;;;;0.20;0.15;;;;;;;;;;5048656;28;20025;-80
2023/07/02 13:12:56;;;;;;;1.05;0.85;;;;;;;;;;5048783;28;20044;-80
2023/07/02 13:15:22;;;;;;;0.75;0.55;;;;;;;;;;5048774;28;20037;-80
2023/07/02 13:17:48;;;;;;;0.10;0.10;;;;;;;;;;5048154;28;20017;-80
2023/07/02 13:20:14;;;;;;;0.85;0.25;;;;;;;;;;5051505;28;20418;-80
2023/07/02 13:22:40;;;;;;;0.20;0.20;;;;;;;;;;5051789;28;20017;-80
2023/07/02 13:25:06;;;;;;;0.40;0.40;;;;;;;;;;5052129;28;20037;-80
2023/07/02 13:27:32;;;;;;;0.20;0.20;;;;;;;;;;5051829;28;20056;-80
2023/07/02 13:29:58;;;;;;;0.17;0.17;;;;;;;;;;5052171;28;20060;-80
2023/07/02 13:32:24;;;;;;;0.40;0.40;;;;;;;;;;5051707;28;20021;-80
2023/07/02 13:34:50;;;;;;;0.55;0.50;;;;;;;;;;5050836;28;20033;-80
2023/07/02 13:37:19;;;;;;;2.30;0.80;;;;;;;;;;5051927;28;20033;-80
2023/07/02 13:39:46;;;;;;;0.57;0.57;;;;;;;;;;5052073;28;20380;-80
2023/07/02 13:42:12;;;;;;;0.73;0.73;;;;;;;;;;5051875;28;20032;-80
2023/07/02 13:44:38;;;;;;;0.85;0.70;;;;;;;;;;5052870;27;20099;-80
2023/07/02 13:47:04;;;;;;;1.77;0.95;;;;;;;;;;5051231;27;20074;-80
2023/07/02 13:49:30;;;;;;;0.68;0.60;;;;;;;;;;5051641;28;20066;-80
2023/07/02 13:51:56;;;;;;;0.40;0.40;;;;;;;;;;5051612;28;20029;-79
2023/07/02 13:54:22;;;;;;;0.52;0.52;;;;;;;;;;5051800;28;20025;-80
2023/07/02 13:56:48;;;;;;;0.50;0.50;;;;;;;;;;5051713;28;20028;-80
2023/07/02 13:59:15;;;;;;;1.05;0.93;;;;;;;;;;5052483;28;20006;-80
2023/07/02 14:01:42;;;;;;;0.32;0.32;;;;;;;;;;5051536;28;20028;-80
2023/07/02 14:04:08;;;;;;;0.20;0.20;;;;;;;;;;5050558;28;20060;-81
2023/07/02 14:06:34;;;;;;;0.55;0.52;;;;;;;;;;5050293;28;20078;-78
2023/07/02 14:09:00;;;;;;;0.50;0.50;;;;;;;;;;5051164;28;20032;-80
2023/07/02 14:11:27;;;;;;;1.13;0.90;;;;;;;;;;5051676;28;20028;-80
2023/07/02 14:13:53;;;;;;;1.27;1.23;;;;;;;;;;5051130;28;20028;-80
2023/07/02 14:16:19;;;;;;;0.80;0.40;;;;;;;;;;5050725;28;20121;-81
2023/07/02 14:18:46;;;;;;;0.68;0.63;;;;;;;;;;5051163;28;20029;-80
2023/07/02 14:21:12;;;;;;;0.38;0.38;;;;;;;;;;5051449;28;20025;-80
2023/07/02 14:23:38;;;;;;;0.90;0.90;;;;;;;;;;5044592;28;20029;-81
2023/07/02 14:26:04;;;;;;;0.25;0.25;;;;;;;;;;5050882;28;20025;-80
2023/07/02 14:28:31;;;;;;;0.60;0.50;;;;;;;;;;5050902;28;20081;-80
2023/07/02 14:31:06;;;;;;;0.22;0.22;;;;;;;;;;5048466;28;20029;-80
2023/07/02 14:33:33;;;;;;;0.98;0.50;;;;;;;;;;5050317;28;20025;-79
2023/07/02 14:35:59;;;;;;;0.85;0.60;;;;;;;;;;5049898;28;20029;-80
2023/07/02 14:38:26;;;;;;;0.55;0.55;;;;;;;;;;5050330;28;20033;-78
2023/07/02 14:40:53;;;;;;;0.50;0.50;;;;;;;;;;5050109;28;20025;-80